sensor_id;sensor_type;location;lat;lon;timestamp;P1;durP1;ratioP1;P2;durP2;ratioP2
8825;SDS011;4449;50.872;4.714;2023-10-08T00:03:42;3.88;;;3.35;;
8825;SDS011;4449;50.872;4.714;2023-10-08T00:06:14;4.70;;;3.42;;
8825;SDS011;4449;50.872;4.714;2023-10-08T00:08:43;3.97;;;3.40;;
8825;SDS011;4449;50.872;4.714;2023-10-08T00:11:10;4.00;;;3.60;;
8825;SDS011;4449;50.872;4.714;2023-10-08T00:13:38;5.33;;;3.50;;
8825;SDS011;4449;50.872;4.714;2023-10-08T00:16:06;5.60;;;3.67;;
8825;SDS011;4449;50.872;4.714;2023-10-08T00:18:36;5.65;;;3.55;;
8825;SDS011;4449;50.872;4.714;2023-10-08T00:21:08;6.38;;;3.55;;
8825;SDS011;4449;50.872;4.714;2023-10-08T00:23:45;4.82;;;3.72;;
8825;SDS011;4449;50.872;4.714;2023-10-08T00:26:18;5.00;;;3.67;;
8825;SDS011;4449;50.872;4.714;2023-10-08T00:28:54;4.95;;;4.03;;
8825;SDS011;4449;50.872;4.714;2023-10-08T00:31:22;3.85;;;3.47;;
8825;SDS011;4449;50.872;4.714;2023-10-08T00:33:55;4.35;;;3.67;;
8825;SDS011;4449;50.872;4.714;2023-10-08T00:36:24;4.70;;;3.53;;
8825;SDS011;4449;50.872;4.714;2023-10-08T00:38:52;5.63;;;3.75;;
8825;SDS011;4449;50.872;4.714;2023-10-08T00:41:23;5.80;;;4.00;;
8825;SDS011;4449;50.872;4.714;2023-10-08T00:43:53;5.55;;;3.97;;
8825;SDS011;4449;50.872;4.714;2023-10-08T00:46:24;3.80;;;3.50;;
8825;SDS011;4449;50.872;4.714;2023-10-08T00:48:58;6.07;;;3.75;;
8825;SDS011;4449;50.872;4.714;2023-10-08T00:51:44;4.55;;;3.70;;
8825;SDS011;4449;50.872;4.714;2023-10-08T00:54:13;5.37;;;4.00;;
8825;SDS011;4449;50.872;4.714;2023-10-08T00:56:45;7.13;;;3.80;;
8825;SDS011;4449;50.872;4.714;2023-10-08T00:59:18;5.60;;;3.90;;
8825;SDS011;4449;50.872;4.714;2023-10-08T01:01:49;4.35;;;3.40;;
8825;SDS011;4449;50.872;4.714;2023-10-08T01:04:17;4.18;;;3.80;;
8825;SDS011;4449;50.872;4.714;2023-10-08T01:06:50;4.27;;;3.87;;
8825;SDS011;4449;50.872;4.714;2023-10-08T01:09:24;5.43;;;3.60;;
8825;SDS011;4449;50.872;4.714;2023-10-08T01:12:07;4.22;;;3.50;;
8825;SDS011;4449;50.872;4.714;2023-10-08T01:14:37;6.13;;;3.80;;
8825;SDS011;4449;50.872;4.714;2023-10-08T01:17:08;3.80;;;3.50;;
8825;SDS011;4449;50.872;4.714;2023-10-08T01:19:37;4.43;;;3.90;;
8825;SDS011;4449;50.872;4.714;2023-10-08T01:22:09;4.20;;;3.80;;
8825;SDS011;4449;50.872;4.714;2023-10-08T01:24:42;4.57;;;3.57;;
8825;SDS011;4449;50.872;4.714;2023-10-08T01:27:11;4.40;;;3.60;;
8825;SDS011;4449;50.872;4.714;2023-10-08T01:29:44;3.35;;;3.05;;
8825;SDS011;4449;50.872;4.714;2023-10-08T01:32:12;4.60;;;3.92;;
8825;SDS011;4449;50.872;4.714;2023-10-08T01:34:41;4.82;;;3.40;;
8825;SDS011;4449;50.872;4.714;2023-10-08T01:37:12;4.40;;;3.65;;
8825;SDS011;4449;50.872;4.714;2023-10-08T01:39:42;4.63;;;3.70;;
8825;SDS011;4449;50.872;4.714;2023-10-08T01:42:10;5.43;;;3.63;;
8825;SDS011;4449;50.872;4.714;2023-10-08T01:44:43;4.45;;;3.72;;
8825;SDS011;4449;50.872;4.714;2023-10-08T01:47:12;5.97;;;3.90;;
8825;SDS011;4449;50.872;4.714;2023-10-08T01:49:41;6.60;;;3.80;;
8825;SDS011;4449;50.872;4.714;2023-10-08T01:52:10;5.70;;;3.95;;
8825;SDS011;4449;50.872;4.714;2023-10-08T01:54:45;4.93;;;3.67;;
8825;SDS011;4449;50.872;4.714;2023-10-08T01:57:13;4.00;;;3.60;;
8825;SDS011;4449;50.872;4.714;2023-10-08T01:59:42;4.50;;;4.10;;
8825;SDS011;4449;50.872;4.714;2023-10-08T02:02:11;5.57;;;3.80;;
8825;SDS011;4449;50.872;4.714;2023-10-08T02:04:40;4.90;;;3.80;;
8825;SDS011;4449;50.872;4.714;2023-10-08T02:07:09;5.38;;;4.00;;
8825;SDS011;4449;50.872;4.714;2023-10-08T02:09:38;4.73;;;3.60;;
8825;SDS011;4449;50.872;4.714;2023-10-08T02:12:07;4.78;;;3.45;;
8825;SDS011;4449;50.872;4.714;2023-10-08T02:14:35;5.32;;;3.97;;
8825;SDS011;4449;50.872;4.714;2023-10-08T02:17:02;5.27;;;3.83;;
8825;SDS011;4449;50.872;4.714;2023-10-08T02:19:31;4.63;;;3.57;;
8825;SDS011;4449;50.872;4.714;2023-10-08T02:22:00;4.30;;;3.90;;
8825;SDS011;4449;50.872;4.714;2023-10-08T02:24:30;4.70;;;3.80;;
8825;SDS011;4449;50.872;4.714;2023-10-08T02:26:58;4.20;;;3.77;;
8825;SDS011;4449;50.872;4.714;2023-10-08T02:29:28;4.30;;;3.90;;
8825;SDS011;4449;50.872;4.714;2023-10-08T02:31:56;4.35;;;3.95;;
8825;SDS011;4449;50.872;4.714;2023-10-08T02:34:24;5.17;;;3.63;;
8825;SDS011;4449;50.872;4.714;2023-10-08T02:36:52;4.60;;;3.38;;
8825;SDS011;4449;50.872;4.714;2023-10-08T02:39:20;4.95;;;3.90;;
8825;SDS011;4449;50.872;4.714;2023-10-08T02:41:51;4.10;;;3.70;;
8825;SDS011;4449;50.872;4.714;2023-10-08T02:44:22;4.20;;;3.67;;
8825;SDS011;4449;50.872;4.714;2023-10-08T02:46:51;4.28;;;3.70;;
8825;SDS011;4449;50.872;4.714;2023-10-08T02:49:21;7.00;;;3.95;;
8825;SDS011;4449;50.872;4.714;2023-10-08T02:51:50;5.68;;;4.25;;
8825;SDS011;4449;50.872;4.714;2023-10-08T02:54:19;5.32;;;3.90;;
8825;SDS011;4449;50.872;4.714;2023-10-08T02:56:49;4.97;;;3.80;;
8825;SDS011;4449;50.872;4.714;2023-10-08T02:59:17;5.32;;;4.07;;
8825;SDS011;4449;50.872;4.714;2023-10-08T03:01:47;5.40;;;4.07;;
8825;SDS011;4449;50.872;4.714;2023-10-08T03:04:16;5.32;;;3.55;;
8825;SDS011;4449;50.872;4.714;2023-10-08T03:06:44;6.28;;;3.83;;
8825;SDS011;4449;50.872;4.714;2023-10-08T03:09:16;4.72;;;3.78;;
8825;SDS011;4449;50.872;4.714;2023-10-08T03:11:48;6.15;;;3.90;;
8825;SDS011;4449;50.872;4.714;2023-10-08T03:14:16;6.55;;;3.80;;
8825;SDS011;4449;50.872;4.714;2023-10-08T03:16:51;5.40;;;3.83;;
8825;SDS011;4449;50.872;4.714;2023-10-08T03:19:21;5.50;;;3.95;;
8825;SDS011;4449;50.872;4.714;2023-10-08T03:21:50;4.57;;;3.60;;
8825;SDS011;4449;50.872;4.714;2023-10-08T03:24:21;6.53;;;3.97;;
8825;SDS011;4449;50.872;4.714;2023-10-08T03:27:04;4.30;;;3.85;;
8825;SDS011;4449;50.872;4.714;2023-10-08T03:29:33;4.90;;;4.25;;
8825;SDS011;4449;50.872;4.714;2023-10-08T03:32:06;5.30;;;3.90;;
8825;SDS011;4449;50.872;4.714;2023-10-08T03:34:40;5.50;;;4.05;;
8825;SDS011;4449;50.872;4.714;2023-10-08T03:37:11;6.50;;;4.03;;
8825;SDS011;4449;50.872;4.714;2023-10-08T03:39:45;4.72;;;4.18;;
8825;SDS011;4449;50.872;4.714;2023-10-08T03:42:26;5.30;;;4.07;;
8825;SDS011;4449;50.872;4.714;2023-10-08T03:45:00;4.90;;;4.00;;
8825;SDS011;4449;50.872;4.714;2023-10-08T03:47:36;4.85;;;4.30;;
8825;SDS011;4449;50.872;4.714;2023-10-08T03:50:06;5.30;;;4.10;;
8825;SDS011;4449;50.872;4.714;2023-10-08T03:52:37;4.70;;;4.20;;
8825;SDS011;4449;50.872;4.714;2023-10-08T03:55:05;5.73;;;4.40;;
8825;SDS011;4449;50.872;4.714;2023-10-08T03:57:47;4.57;;;4.18;;
8825;SDS011;4449;50.872;4.714;2023-10-08T04:00:22;4.75;;;4.25;;
8825;SDS011;4449;50.872;4.714;2023-10-08T04:02:58;6.15;;;4.13;;
8825;SDS011;4449;50.872;4.714;2023-10-08T04:05:35;5.00;;;4.10;;
8825;SDS011;4449;50.872;4.714;2023-10-08T04:08:13;6.85;;;4.10;;
8825;SDS011;4449;50.872;4.714;2023-10-08T04:10:49;4.40;;;3.88;;
8825;SDS011;4449;50.872;4.714;2023-10-08T04:13:47;4.90;;;3.97;;
8825;SDS011;4449;50.872;4.714;2023-10-08T04:16:17;4.78;;;3.85;;
8825;SDS011;4449;50.872;4.714;2023-10-08T04:18:46;5.53;;;4.13;;
8825;SDS011;4449;50.872;4.714;2023-10-08T04:21:18;6.60;;;4.10;;
8825;SDS011;4449;50.872;4.714;2023-10-08T04:23:46;5.40;;;3.78;;
8825;SDS011;4449;50.872;4.714;2023-10-08T04:26:18;5.03;;;3.63;;
8825;SDS011;4449;50.872;4.714;2023-10-08T04:28:49;4.05;;;3.70;;
8825;SDS011;4449;50.872;4.714;2023-10-08T04:31:20;4.45;;;4.05;;
8825;SDS011;4449;50.872;4.714;2023-10-08T04:33:50;4.25;;;3.85;;
8825;SDS011;4449;50.872;4.714;2023-10-08T04:36:20;5.25;;;3.97;;
8825;SDS011;4449;50.872;4.714;2023-10-08T04:38:48;5.93;;;4.40;;
8825;SDS011;4449;50.872;4.714;2023-10-08T04:41:20;4.97;;;4.33;;
8825;SDS011;4449;50.872;4.714;2023-10-08T04:43:53;4.40;;;4.00;;
8825;SDS011;4449;50.872;4.714;2023-10-08T04:46:21;4.40;;;4.00;;
8825;SDS011;4449;50.872;4.714;2023-10-08T04:49:12;5.50;;;4.28;;
8825;SDS011;4449;50.872;4.714;2023-10-08T04:51:54;4.57;;;3.97;;
8825;SDS011;4449;50.872;4.714;2023-10-08T04:54:25;5.28;;;4.30;;
8825;SDS011;4449;50.872;4.714;2023-10-08T04:56:55;6.90;;;4.32;;
8825;SDS011;4449;50.872;4.714;2023-10-08T04:59:25;4.70;;;4.15;;
8825;SDS011;4449;50.872;4.714;2023-10-08T05:01:59;6.30;;;4.13;;
8825;SDS011;4449;50.872;4.714;2023-10-08T05:04:45;4.72;;;4.32;;
8825;SDS011;4449;50.872;4.714;2023-10-08T05:07:33;4.70;;;4.30;;
8825;SDS011;4449;50.872;4.714;2023-10-08T05:10:26;6.50;;;4.40;;
8825;SDS011;4449;50.872;4.714;2023-10-08T05:13:09;4.72;;;4.32;;
8825;SDS011;4449;50.872;4.714;2023-10-08T05:15:55;4.43;;;3.95;;
8825;SDS011;4449;50.872;4.714;2023-10-08T05:18:37;7.80;;;4.73;;
8825;SDS011;4449;50.872;4.714;2023-10-08T05:21:18;5.63;;;4.50;;
8825;SDS011;4449;50.872;4.714;2023-10-08T05:23:55;5.22;;;4.22;;
8825;SDS011;4449;50.872;4.714;2023-10-08T05:26:35;5.10;;;4.60;;
8825;SDS011;4449;50.872;4.714;2023-10-08T05:29:10;6.18;;;4.28;;
8825;SDS011;4449;50.872;4.714;2023-10-08T05:32:17;5.32;;;4.40;;
8825;SDS011;4449;50.872;4.714;2023-10-08T05:35:04;6.28;;;4.60;;
8825;SDS011;4449;50.872;4.714;2023-10-08T05:37:49;5.68;;;4.72;;
8825;SDS011;4449;50.872;4.714;2023-10-08T05:40:40;4.53;;;4.10;;
8825;SDS011;4449;50.872;4.714;2023-10-08T05:43:30;5.17;;;4.30;;
8825;SDS011;4449;50.872;4.714;2023-10-08T05:46:15;4.50;;;4.05;;
8825;SDS011;4449;50.872;4.714;2023-10-08T05:49:05;5.93;;;4.50;;
8825;SDS011;4449;50.872;4.714;2023-10-08T05:51:51;6.53;;;4.60;;
8825;SDS011;4449;50.872;4.714;2023-10-08T05:54:36;7.22;;;4.65;;
8825;SDS011;4449;50.872;4.714;2023-10-08T05:57:24;5.28;;;4.50;;
8825;SDS011;4449;50.872;4.714;2023-10-08T06:00:04;4.68;;;4.25;;
8825;SDS011;4449;50.872;4.714;2023-10-08T06:02:50;5.82;;;4.47;;
8825;SDS011;4449;50.872;4.714;2023-10-08T06:05:35;4.90;;;4.22;;
8825;SDS011;4449;50.872;4.714;2023-10-08T06:08:12;6.47;;;4.80;;
8825;SDS011;4449;50.872;4.714;2023-10-08T06:10:46;6.78;;;4.28;;
8825;SDS011;4449;50.872;4.714;2023-10-08T06:13:23;4.73;;;4.23;;
8825;SDS011;4449;50.872;4.714;2023-10-08T06:15:56;4.65;;;4.20;;
8825;SDS011;4449;50.872;4.714;2023-10-08T06:18:33;5.15;;;4.28;;
8825;SDS011;4449;50.872;4.714;2023-10-08T06:21:01;5.28;;;4.30;;
8825;SDS011;4449;50.872;4.714;2023-10-08T06:23:33;5.05;;;4.40;;
8825;SDS011;4449;50.872;4.714;2023-10-08T06:26:01;4.85;;;4.20;;
8825;SDS011;4449;50.872;4.714;2023-10-08T06:28:41;6.72;;;4.93;;
8825;SDS011;4449;50.872;4.714;2023-10-08T06:31:09;4.85;;;4.45;;
8825;SDS011;4449;50.872;4.714;2023-10-08T06:33:42;5.22;;;4.22;;
8825;SDS011;4449;50.872;4.714;2023-10-08T06:36:10;4.80;;;4.40;;
8825;SDS011;4449;50.872;4.714;2023-10-08T06:38:41;6.55;;;4.35;;
8825;SDS011;4449;50.872;4.714;2023-10-08T06:41:10;5.30;;;4.40;;
8825;SDS011;4449;50.872;4.714;2023-10-08T06:43:45;5.75;;;4.78;;
8825;SDS011;4449;50.872;4.714;2023-10-08T06:46:15;6.60;;;4.68;;
8825;SDS011;4449;50.872;4.714;2023-10-08T06:48:44;5.03;;;4.37;;
8825;SDS011;4449;50.872;4.714;2023-10-08T06:51:14;5.60;;;4.35;;
8825;SDS011;4449;50.872;4.714;2023-10-08T06:53:44;6.53;;;4.82;;
8825;SDS011;4449;50.872;4.714;2023-10-08T06:56:12;6.07;;;4.40;;
8825;SDS011;4449;50.872;4.714;2023-10-08T06:58:40;6.70;;;4.63;;
8825;SDS011;4449;50.872;4.714;2023-10-08T07:01:13;5.60;;;4.78;;
8825;SDS011;4449;50.872;4.714;2023-10-08T07:03:46;5.97;;;4.82;;
8825;SDS011;4449;50.872;4.714;2023-10-08T07:06:14;6.57;;;4.90;;
8825;SDS011;4449;50.872;4.714;2023-10-08T07:08:51;6.97;;;4.50;;
8825;SDS011;4449;50.872;4.714;2023-10-08T07:11:20;5.22;;;4.72;;
8825;SDS011;4449;50.872;4.714;2023-10-08T07:13:48;6.07;;;4.50;;
8825;SDS011;4449;50.872;4.714;2023-10-08T07:16:18;5.68;;;4.53;;
8825;SDS011;4449;50.872;4.714;2023-10-08T07:18:46;4.75;;;4.22;;
8825;SDS011;4449;50.872;4.714;2023-10-08T07:21:17;4.72;;;4.25;;
8825;SDS011;4449;50.872;4.714;2023-10-08T07:23:54;6.68;;;4.57;;
8825;SDS011;4449;50.872;4.714;2023-10-08T07:26:25;6.55;;;4.40;;
8825;SDS011;4449;50.872;4.714;2023-10-08T07:29:01;8.73;;;5.05;;
8825;SDS011;4449;50.872;4.714;2023-10-08T07:31:34;5.13;;;4.50;;
8825;SDS011;4449;50.872;4.714;2023-10-08T07:34:03;5.13;;;4.10;;
8825;SDS011;4449;50.872;4.714;2023-10-08T07:36:44;8.23;;;4.50;;
8825;SDS011;4449;50.872;4.714;2023-10-08T07:39:12;6.00;;;4.50;;
8825;SDS011;4449;50.872;4.714;2023-10-08T07:41:51;4.90;;;4.43;;
8825;SDS011;4449;50.872;4.714;2023-10-08T07:44:20;7.07;;;4.93;;
8825;SDS011;4449;50.872;4.714;2023-10-08T07:46:50;5.17;;;4.73;;
8825;SDS011;4449;50.872;4.714;2023-10-08T07:49:19;5.75;;;4.20;;
8825;SDS011;4449;50.872;4.714;2023-10-08T07:51:48;5.07;;;4.60;;
8825;SDS011;4449;50.872;4.714;2023-10-08T07:54:17;6.28;;;4.82;;
8825;SDS011;4449;50.872;4.714;2023-10-08T07:56:48;4.37;;;4.00;;
8825;SDS011;4449;50.872;4.714;2023-10-08T07:59:16;5.82;;;4.05;;
8825;SDS011;4449;50.872;4.714;2023-10-08T08:01:44;5.85;;;4.45;;
8825;SDS011;4449;50.872;4.714;2023-10-08T08:04:15;5.47;;;4.35;;
8825;SDS011;4449;50.872;4.714;2023-10-08T08:06:48;5.53;;;4.45;;
8825;SDS011;4449;50.872;4.714;2023-10-08T08:09:17;5.40;;;4.90;;
8825;SDS011;4449;50.872;4.714;2023-10-08T08:11:45;4.60;;;4.20;;
8825;SDS011;4449;50.872;4.714;2023-10-08T08:14:14;7.63;;;5.35;;
8825;SDS011;4449;50.872;4.714;2023-10-08T08:16:43;8.05;;;4.78;;
8825;SDS011;4449;50.872;4.714;2023-10-08T08:19:16;6.80;;;4.88;;
8825;SDS011;4449;50.872;4.714;2023-10-08T08:21:49;8.00;;;4.67;;
8825;SDS011;4449;50.872;4.714;2023-10-08T08:24:18;5.50;;;4.25;;
8825;SDS011;4449;50.872;4.714;2023-10-08T08:26:54;8.75;;;4.88;;
8825;SDS011;4449;50.872;4.714;2023-10-08T08:29:33;5.88;;;4.55;;
8825;SDS011;4449;50.872;4.714;2023-10-08T08:32:09;6.82;;;4.95;;
8825;SDS011;4449;50.872;4.714;2023-10-08T08:34:42;6.83;;;4.50;;
8825;SDS011;4449;50.872;4.714;2023-10-08T08:37:11;5.82;;;5.03;;
8825;SDS011;4449;50.872;4.714;2023-10-08T08:39:39;8.00;;;4.88;;
8825;SDS011;4449;50.872;4.714;2023-10-08T08:42:07;7.80;;;4.82;;
8825;SDS011;4449;50.872;4.714;2023-10-08T08:44:36;7.80;;;4.97;;
8825;SDS011;4449;50.872;4.714;2023-10-08T08:47:09;8.27;;;5.18;;
8825;SDS011;4449;50.872;4.714;2023-10-08T08:49:44;8.23;;;5.35;;
8825;SDS011;4449;50.872;4.714;2023-10-08T08:52:12;7.00;;;5.10;;
8825;SDS011;4449;50.872;4.714;2023-10-08T08:54:40;5.35;;;4.82;;
8825;SDS011;4449;50.872;4.714;2023-10-08T08:57:09;7.85;;;5.05;;
8825;SDS011;4449;50.872;4.714;2023-10-08T08:59:40;7.63;;;4.95;;
8825;SDS011;4449;50.872;4.714;2023-10-08T09:02:11;6.55;;;4.88;;
8825;SDS011;4449;50.872;4.714;2023-10-08T09:04:41;6.70;;;4.93;;
8825;SDS011;4449;50.872;4.714;2023-10-08T09:07:14;8.40;;;5.38;;
8825;SDS011;4449;50.872;4.714;2023-10-08T09:09:42;6.13;;;5.18;;
8825;SDS011;4449;50.872;4.714;2023-10-08T09:12:10;10.70;;;6.97;;
8825;SDS011;4449;50.872;4.714;2023-10-08T09:14:37;7.07;;;5.22;;
8825;SDS011;4449;50.872;4.714;2023-10-08T09:17:05;7.43;;;5.20;;
8825;SDS011;4449;50.872;4.714;2023-10-08T09:19:35;7.80;;;4.97;;
8825;SDS011;4449;50.872;4.714;2023-10-08T09:34:49;9.93;;;5.90;;
8825;SDS011;4449;50.872;4.714;2023-10-08T09:37:17;8.27;;;5.32;;
8825;SDS011;4449;50.872;4.714;2023-10-08T09:39:47;7.20;;;5.35;;
8825;SDS011;4449;50.872;4.714;2023-10-08T09:42:17;9.63;;;5.30;;
8825;SDS011;4449;50.872;4.714;2023-10-08T09:44:47;7.75;;;5.15;;
8825;SDS011;4449;50.872;4.714;2023-10-08T09:47:17;10.65;;;5.60;;
8825;SDS011;4449;50.872;4.714;2023-10-08T09:49:50;7.53;;;5.28;;
8825;SDS011;4449;50.872;4.714;2023-10-08T09:52:24;7.30;;;5.13;;
8825;SDS011;4449;50.872;4.714;2023-10-08T09:54:56;9.90;;;5.80;;
8825;SDS011;4449;50.872;4.714;2023-10-08T09:57:26;9.23;;;5.53;;
8825;SDS011;4449;50.872;4.714;2023-10-08T09:59:54;10.40;;;6.13;;
8825;SDS011;4449;50.872;4.714;2023-10-08T10:02:23;9.38;;;6.10;;
8825;SDS011;4449;50.872;4.714;2023-10-08T10:04:54;7.53;;;5.90;;
8825;SDS011;4449;50.872;4.714;2023-10-08T10:07:22;10.63;;;4.77;;
8825;SDS011;4449;50.872;4.714;2023-10-08T10:09:50;6.57;;;5.37;;
8825;SDS011;4449;50.872;4.714;2023-10-08T10:12:20;9.70;;;5.40;;
8825;SDS011;4449;50.872;4.714;2023-10-08T10:14:52;10.17;;;5.87;;
8825;SDS011;4449;50.872;4.714;2023-10-08T10:17:21;12.17;;;5.33;;
8825;SDS011;4449;50.872;4.714;2023-10-08T10:19:50;11.23;;;5.97;;
8825;SDS011;4449;50.872;4.714;2023-10-08T10:22:28;11.80;;;6.13;;
8825;SDS011;4449;50.872;4.714;2023-10-08T10:24:58;10.30;;;5.80;;
8825;SDS011;4449;50.872;4.714;2023-10-08T10:27:29;11.20;;;6.20;;
8825;SDS011;4449;50.872;4.714;2023-10-08T10:30:03;9.13;;;5.90;;
8825;SDS011;4449;50.872;4.714;2023-10-08T10:32:34;11.07;;;5.57;;
8825;SDS011;4449;50.872;4.714;2023-10-08T10:35:02;11.90;;;5.13;;
8825;SDS011;4449;50.872;4.714;2023-10-08T10:37:32;13.10;;;5.93;;
8825;SDS011;4449;50.872;4.714;2023-10-08T10:40:07;12.90;;;6.20;;
8825;SDS011;4449;50.872;4.714;2023-10-08T10:42:38;12.17;;;6.20;;
8825;SDS011;4449;50.872;4.714;2023-10-08T10:45:13;11.80;;;5.93;;
8825;SDS011;4449;50.872;4.714;2023-10-08T10:48:01;15.10;;;5.60;;
8825;SDS011;4449;50.872;4.714;2023-10-08T10:50:39;8.23;;;5.20;;
8825;SDS011;4449;50.872;4.714;2023-10-08T10:53:17;10.17;;;5.83;;
8825;SDS011;4449;50.872;4.714;2023-10-08T10:55:44;18.73;;;6.43;;
8825;SDS011;4449;50.872;4.714;2023-10-08T10:58:24;8.60;;;5.90;;
8825;SDS011;4449;50.872;4.714;2023-10-08T11:00:54;8.00;;;5.67;;
8825;SDS011;4449;50.872;4.714;2023-10-08T11:03:25;9.67;;;5.77;;
8825;SDS011;4449;50.872;4.714;2023-10-08T11:05:56;10.63;;;5.87;;
8825;SDS011;4449;50.872;4.714;2023-10-08T11:08:26;7.67;;;6.20;;
8825;SDS011;4449;50.872;4.714;2023-10-08T11:11:00;10.30;;;5.67;;
8825;SDS011;4449;50.872;4.714;2023-10-08T11:13:32;10.17;;;5.77;;
8825;SDS011;4449;50.872;4.714;2023-10-08T11:16:03;11.50;;;6.20;;
8825;SDS011;4449;50.872;4.714;2023-10-08T11:18:32;7.53;;;5.27;;
8825;SDS011;4449;50.872;4.714;2023-10-08T12:20:00;10.63;;;5.70;;
8825;SDS011;4449;50.872;4.714;2023-10-08T12:22:37;10.17;;;5.67;;
8825;SDS011;4449;50.872;4.714;2023-10-08T12:25:05;8.63;;;5.87;;
8825;SDS011;4449;50.872;4.714;2023-10-08T12:27:33;8.00;;;5.37;;
8825;SDS011;4449;50.872;4.714;2023-10-08T12:30:01;11.37;;;5.27;;
8825;SDS011;4449;50.872;4.714;2023-10-08T12:32:35;7.63;;;6.07;;
8825;SDS011;4449;50.872;4.714;2023-10-08T12:35:09;10.27;;;5.43;;
8825;SDS011;4449;50.872;4.714;2023-10-08T12:37:38;13.57;;;6.63;;
8825;SDS011;4449;50.872;4.714;2023-10-08T12:40:06;11.17;;;5.60;;
8825;SDS011;4449;50.872;4.714;2023-10-08T12:42:47;9.50;;;5.40;;
8825;SDS011;4449;50.872;4.714;2023-10-08T12:45:15;10.50;;;5.70;;
8825;SDS011;4449;50.872;4.714;2023-10-08T12:47:46;8.63;;;5.90;;
8825;SDS011;4449;50.872;4.714;2023-10-08T12:50:16;10.23;;;5.43;;
8825;SDS011;4449;50.872;4.714;2023-10-08T12:52:54;11.27;;;5.90;;
8825;SDS011;4449;50.872;4.714;2023-10-08T12:55:22;10.40;;;5.60;;
8825;SDS011;4449;50.872;4.714;2023-10-08T12:57:51;11.93;;;5.00;;
8825;SDS011;4449;50.872;4.714;2023-10-08T15:50:25;8.88;;;6.40;;
8825;SDS011;4449;50.872;4.714;2023-10-08T15:52:58;8.63;;;5.75;;
8825;SDS011;4449;50.872;4.714;2023-10-08T15:55:26;7.20;;;5.80;;
8825;SDS011;4449;50.872;4.714;2023-10-08T15:57:53;9.25;;;5.60;;
8825;SDS011;4449;50.872;4.714;2023-10-08T16:00:21;10.13;;;6.10;;
8825;SDS011;4449;50.872;4.714;2023-10-08T16:02:49;9.32;;;6.47;;
8825;SDS011;4449;50.872;4.714;2023-10-08T16:05:17;7.50;;;5.73;;
8825;SDS011;4449;50.872;4.714;2023-10-08T16:07:45;7.47;;;5.55;;
8825;SDS011;4449;50.872;4.714;2023-10-08T16:10:14;9.60;;;6.18;;
8825;SDS011;4449;50.872;4.714;2023-10-08T16:12:42;7.07;;;5.80;;
8825;SDS011;4449;50.872;4.714;2023-10-08T16:15:10;9.57;;;6.03;;
8825;SDS011;4449;50.872;4.714;2023-10-08T16:17:37;6.43;;;5.65;;
8825;SDS011;4449;50.872;4.714;2023-10-08T16:20:07;11.00;;;6.35;;
8825;SDS011;4449;50.872;4.714;2023-10-08T16:22:40;9.13;;;5.82;;
8825;SDS011;4449;50.872;4.714;2023-10-08T16:25:09;7.47;;;6.05;;
8825;SDS011;4449;50.872;4.714;2023-10-08T16:27:40;9.65;;;6.10;;
8825;SDS011;4449;50.872;4.714;2023-10-08T16:30:14;8.93;;;6.55;;
8825;SDS011;4449;50.872;4.714;2023-10-08T16:32:42;8.38;;;6.15;;
8825;SDS011;4449;50.872;4.714;2023-10-08T16:35:11;9.02;;;6.40;;
8825;SDS011;4449;50.872;4.714;2023-10-08T16:37:39;9.85;;;6.57;;
8825;SDS011;4449;50.872;4.714;2023-10-08T16:40:10;7.53;;;6.25;;
8825;SDS011;4449;50.872;4.714;2023-10-08T16:42:38;7.68;;;6.10;;
8825;SDS011;4449;50.872;4.714;2023-10-08T16:45:06;9.07;;;5.85;;
8825;SDS011;4449;50.872;4.714;2023-10-08T16:47:35;8.73;;;6.07;;
8825;SDS011;4449;50.872;4.714;2023-10-08T16:50:03;10.23;;;5.82;;
8825;SDS011;4449;50.872;4.714;2023-10-08T16:52:31;9.00;;;6.22;;
8825;SDS011;4449;50.872;4.714;2023-10-08T16:54:59;7.28;;;6.03;;
8825;SDS011;4449;50.872;4.714;2023-10-08T16:57:28;7.88;;;5.75;;
8825;SDS011;4449;50.872;4.714;2023-10-08T16:59:56;7.27;;;5.90;;
8825;SDS011;4449;50.872;4.714;2023-10-08T17:02:24;9.48;;;5.90;;
8825;SDS011;4449;50.872;4.714;2023-10-08T17:04:51;10.65;;;7.28;;
8825;SDS011;4449;50.872;4.714;2023-10-08T17:07:19;8.13;;;6.20;;
8825;SDS011;4449;50.872;4.714;2023-10-08T17:09:48;9.13;;;6.40;;
8825;SDS011;4449;50.872;4.714;2023-10-08T17:12:16;9.43;;;6.30;;
8825;SDS011;4449;50.872;4.714;2023-10-08T17:14:46;7.55;;;6.13;;
8825;SDS011;4449;50.872;4.714;2023-10-08T17:17:14;8.27;;;6.05;;
8825;SDS011;4449;50.872;4.714;2023-10-08T17:19:42;7.10;;;6.00;;
8825;SDS011;4449;50.872;4.714;2023-10-08T17:22:10;8.35;;;6.30;;
8825;SDS011;4449;50.872;4.714;2023-10-08T17:24:37;15.45;;;5.57;;
8825;SDS011;4449;50.872;4.714;2023-10-08T17:27:06;15.52;;;11.75;;
8825;SDS011;4449;50.872;4.714;2023-10-08T17:29:37;9.13;;;7.38;;
8825;SDS011;4449;50.872;4.714;2023-10-08T17:32:08;7.80;;;6.55;;
8825;SDS011;4449;50.872;4.714;2023-10-08T17:34:36;9.52;;;6.72;;
8825;SDS011;4449;50.872;4.714;2023-10-08T17:37:03;7.67;;;6.87;;
8825;SDS011;4449;50.872;4.714;2023-10-08T17:39:31;8.88;;;6.57;;
8825;SDS011;4449;50.872;4.714;2023-10-08T17:41:59;9.18;;;6.93;;
8825;SDS011;4449;50.872;4.714;2023-10-08T17:44:27;10.20;;;6.80;;
8825;SDS011;4449;50.872;4.714;2023-10-08T17:46:55;11.68;;;7.15;;
8825;SDS011;4449;50.872;4.714;2023-10-08T17:49:24;10.55;;;6.88;;
8825;SDS011;4449;50.872;4.714;2023-10-08T17:51:52;7.18;;;6.50;;
8825;SDS011;4449;50.872;4.714;2023-10-08T17:54:20;9.10;;;6.78;;
8825;SDS011;4449;50.872;4.714;2023-10-08T17:56:48;9.57;;;6.60;;
8825;SDS011;4449;50.872;4.714;2023-10-08T17:59:16;9.32;;;6.82;;
8825;SDS011;4449;50.872;4.714;2023-10-08T18:01:46;7.47;;;6.60;;
8825;SDS011;4449;50.872;4.714;2023-10-08T18:04:13;8.20;;;6.27;;
8825;SDS011;4449;50.872;4.714;2023-10-08T18:06:43;8.75;;;6.63;;
8825;SDS011;4449;50.872;4.714;2023-10-08T18:09:10;9.27;;;6.47;;
8825;SDS011;4449;50.872;4.714;2023-10-08T18:11:38;11.60;;;6.80;;
8825;SDS011;4449;50.872;4.714;2023-10-08T18:14:07;9.07;;;6.60;;
8825;SDS011;4449;50.872;4.714;2023-10-08T18:16:37;11.85;;;6.88;;
8825;SDS011;4449;50.872;4.714;2023-10-08T18:19:06;11.07;;;6.82;;
8825;SDS011;4449;50.872;4.714;2023-10-08T18:21:35;11.02;;;7.38;;
8825;SDS011;4449;50.872;4.714;2023-10-08T18:24:06;9.52;;;7.15;;
8825;SDS011;4449;50.872;4.714;2023-10-08T18:26:34;10.65;;;7.07;;
8825;SDS011;4449;50.872;4.714;2023-10-08T18:29:06;10.13;;;7.05;;
8825;SDS011;4449;50.872;4.714;2023-10-08T18:31:36;10.63;;;7.25;;
8825;SDS011;4449;50.872;4.714;2023-10-08T18:34:04;10.23;;;7.05;;
8825;SDS011;4449;50.872;4.714;2023-10-08T18:36:32;12.32;;;7.32;;
8825;SDS011;4449;50.872;4.714;2023-10-08T18:39:01;9.63;;;7.30;;
8825;SDS011;4449;50.872;4.714;2023-10-08T18:41:39;12.00;;;8.90;;
8825;SDS011;4449;50.872;4.714;2023-10-08T18:44:08;12.45;;;9.07;;
8825;SDS011;4449;50.872;4.714;2023-10-08T18:46:35;8.88;;;7.28;;
8825;SDS011;4449;50.872;4.714;2023-10-08T18:49:03;12.25;;;7.40;;
8825;SDS011;4449;50.872;4.714;2023-10-08T18:51:31;11.55;;;7.47;;
8825;SDS011;4449;50.872;4.714;2023-10-08T18:53:59;8.95;;;7.78;;
8825;SDS011;4449;50.872;4.714;2023-10-08T18:56:27;8.68;;;7.78;;
8825;SDS011;4449;50.872;4.714;2023-10-08T18:58:56;9.23;;;7.40;;
8825;SDS011;4449;50.872;4.714;2023-10-08T19:01:24;11.88;;;7.57;;
8825;SDS011;4449;50.872;4.714;2023-10-08T19:03:54;10.70;;;7.68;;
8825;SDS011;4449;50.872;4.714;2023-10-08T19:06:22;21.13;;;14.03;;
8825;SDS011;4449;50.872;4.714;2023-10-08T19:08:50;8.52;;;7.63;;
8825;SDS011;4449;50.872;4.714;2023-10-08T19:11:17;11.73;;;7.47;;
8825;SDS011;4449;50.872;4.714;2023-10-08T19:13:45;9.88;;;7.60;;
8825;SDS011;4449;50.872;4.714;2023-10-08T19:16:16;12.98;;;7.72;;
8825;SDS011;4449;50.872;4.714;2023-10-08T19:18:44;10.98;;;7.95;;
8825;SDS011;4449;50.872;4.714;2023-10-08T19:21:16;12.07;;;8.13;;
8825;SDS011;4449;50.872;4.714;2023-10-08T19:23:44;9.68;;;7.50;;
8825;SDS011;4449;50.872;4.714;2023-10-08T19:26:12;10.10;;;8.20;;
8825;SDS011;4449;50.872;4.714;2023-10-08T19:28:43;10.30;;;8.37;;
8825;SDS011;4449;50.872;4.714;2023-10-08T19:31:12;10.40;;;8.10;;
8825;SDS011;4449;50.872;4.714;2023-10-08T19:33:42;10.52;;;7.72;;
8825;SDS011;4449;50.872;4.714;2023-10-08T19:36:10;10.55;;;8.18;;
8825;SDS011;4449;50.872;4.714;2023-10-08T19:38:39;12.02;;;7.93;;
8825;SDS011;4449;50.872;4.714;2023-10-08T19:41:11;10.10;;;8.18;;
8825;SDS011;4449;50.872;4.714;2023-10-08T19:43:39;9.93;;;8.77;;